Enter the Airport ICAO Code

Search by Airport or City

Current Weather

FIMP | Sir Seewoosagur Ramgoolam International Airport

Plaine Magnien, Mauritius

Last Update 50 Minutes Ago

Mostly Cloudy Sky

Temperature of 24 ºC

Light to Moderate Winds from South

Temperature

24 ºC

Dew Point Temperature

18 ºC

Relative Humidity

69.32 %

Wind Direction

South (160º, Without Significant Variations)

Wind Velocity

15 km/h (08 kt)

Gusts

None

Visibility

Greater than 10 Kilometers

Sea Level Pressure

1021 hPa (Hectopascals)

Layers of Clouds

60% to 90% of Sky Covered from 488 mts (1600 ft) Above Ground Level.

METAR FIMP 191200Z 16008KT 9999 BKN016 24/18 Q1021

Weather Forecast

FIMP | Sir Seewoosagur Ramgoolam International Airport

Plaine Magnien, Mauritius

Forecast valid for the next 29 Hours

From now on it is expected:

Partly Cloudy Sky

Moderate Winds from SouthEast

Maximum Temperature

No Data

Minimum Temperature

No Data

TAF FIMP 191125Z 1912/2018 15010KT 9999 SCT018